createdAt,value
2022-10-27T00:00:49.142Z,4.68
2022-10-27T00:03:17.699Z,4.50
2022-10-27T00:05:46.694Z,5.55
2022-10-27T00:08:15.435Z,5.72
2022-10-27T00:10:42.596Z,6.25
2022-10-27T00:13:15.189Z,5.80
2022-10-27T00:15:42.116Z,5.25
2022-10-27T00:18:11.346Z,5.32
2022-10-27T00:20:38.445Z,4.53
2022-10-27T00:23:05.492Z,3.67
2022-10-27T00:25:32.164Z,3.70
2022-10-27T00:28:00.403Z,3.90
2022-10-27T00:30:27.451Z,3.85
2022-10-27T00:32:56.126Z,3.78
2022-10-27T00:35:22.815Z,3.20
2022-10-27T00:37:49.601Z,3.88
2022-10-27T00:40:16.413Z,3.33
2022-10-27T00:42:43.042Z,3.80
2022-10-27T00:45:14.166Z,3.95
2022-10-27T00:47:41.222Z,3.60
2022-10-27T00:50:21.922Z,3.60
2022-10-27T00:52:50.969Z,3.63
2022-10-27T00:55:22.992Z,3.65
2022-10-27T00:57:54.316Z,3.63
2022-10-27T01:00:23.012Z,3.92
2022-10-27T01:02:50.409Z,3.22
2022-10-27T01:05:19.048Z,3.60
2022-10-27T01:07:47.991Z,3.42
2022-10-27T01:10:21.299Z,3.45
2022-10-27T01:12:48.347Z,3.40
2022-10-27T01:15:16.654Z,3.47
2022-10-27T01:18:07.505Z,3.67
2022-10-27T01:20:51.939Z,3.58
2022-10-27T01:23:58.464Z,3.25
2022-10-27T01:26:31.182Z,3.25
2022-10-27T01:29:02.490Z,5.15
2022-10-27T01:34:35.431Z,6.15
2022-10-27T01:37:05.563Z,6.00
2022-10-27T01:39:40.152Z,6.40
2022-10-27T01:42:12.436Z,4.85
2022-10-27T01:44:45.617Z,5.20
2022-10-27T01:47:13.394Z,4.10
2022-10-27T01:49:41.669Z,5.50
2022-10-27T01:52:45.183Z,4.70
2022-10-27T01:55:19.096Z,4.55
2022-10-27T01:58:02.802Z,4.10
2022-10-27T02:00:33.884Z,4.20
2022-10-27T02:03:10.455Z,4.05
2022-10-27T02:05:45.924Z,4.18
2022-10-27T02:08:35.805Z,3.55
2022-10-27T02:11:05.613Z,3.40
2022-10-27T02:13:36.679Z,3.22
2022-10-27T02:16:10.026Z,3.97
2022-10-27T02:18:41.616Z,3.50
2022-10-27T02:21:10.405Z,3.65
2022-10-27T02:23:37.445Z,4.25
2022-10-27T02:26:28.355Z,4.40
2022-10-27T02:29:00.366Z,3.80
2022-10-27T02:31:32.967Z,3.47
2022-10-27T02:34:00.463Z,3.83
2022-10-27T02:36:27.424Z,3.75
2022-10-27T02:38:58.345Z,3.60
2022-10-27T02:41:24.977Z,3.30
2022-10-27T02:43:51.513Z,3.67
2022-10-27T02:46:19.796Z,5.05
2022-10-27T02:48:46.281Z,3.92
2022-10-27T02:51:12.841Z,4.20
2022-10-27T02:53:39.427Z,4.43
2022-10-27T02:56:07.413Z,4.50
2022-10-27T02:58:33.907Z,3.80
2022-10-27T03:01:07.138Z,3.50
2022-10-27T03:03:34.054Z,4.00
2022-10-27T03:06:00.502Z,4.40
2022-10-27T03:08:28.725Z,4.40
2022-10-27T03:10:55.308Z,4.95
2022-10-27T03:13:23.721Z,4.15
2022-10-27T03:15:52.438Z,3.65
2022-10-27T03:18:18.941Z,4.38
2022-10-27T03:20:46.727Z,5.53
2022-10-27T03:23:15.413Z,5.93
2022-10-27T03:25:47.643Z,5.93
2022-10-27T03:28:15.462Z,6.60
2022-10-27T03:30:41.961Z,6.90
2022-10-27T03:33:08.436Z,5.70
2022-10-27T03:35:34.918Z,5.78
2022-10-27T03:38:04.226Z,5.25
2022-10-27T03:40:31.238Z,6.18
2022-10-27T03:43:00.355Z,5.35
2022-10-27T03:45:30.114Z,4.57
2022-10-27T03:48:05.063Z,5.30
2022-10-27T03:50:32.437Z,4.53
2022-10-27T03:52:59.422Z,4.07
2022-10-27T03:55:26.294Z,4.25
2022-10-27T03:57:59.703Z,4.97
2022-10-27T04:00:28.415Z,4.50
2022-10-27T04:02:55.578Z,4.40
2022-10-27T04:05:24.632Z,5.60
2022-10-27T04:07:53.339Z,4.93
2022-10-27T04:10:19.827Z,5.70
2022-10-27T04:12:50.883Z,5.45
2022-10-27T04:15:23.302Z,5.80
2022-10-27T04:17:53.336Z,6.10
2022-10-27T04:20:22.240Z,6.75
2022-10-27T04:22:50.833Z,7.22
2022-10-27T04:25:17.574Z,7.40
2022-10-27T04:27:44.183Z,7.90
2022-10-27T04:30:13.466Z,7.88
2022-10-27T04:32:40.199Z,7.30
2022-10-27T04:35:08.133Z,7.45
2022-10-27T04:37:35.179Z,6.80
2022-10-27T04:40:02.000Z,6.82
2022-10-27T04:42:28.506Z,7.00
2022-10-27T04:45:03.490Z,6.95
2022-10-27T04:47:31.647Z,6.63
2022-10-27T04:49:58.112Z,6.25
2022-10-27T04:52:24.615Z,6.97
2022-10-27T04:54:51.094Z,7.47
2022-10-27T04:57:18.778Z,8.02
2022-10-27T04:59:51.900Z,7.22
2022-10-27T05:02:18.383Z,7.22
2022-10-27T05:04:44.892Z,7.25
2022-10-27T05:07:13.135Z,7.38
2022-10-27T05:09:39.717Z,7.93
2022-10-27T05:12:06.597Z,9.15
2022-10-27T05:14:35.400Z,7.85
2022-10-27T05:17:01.965Z,8.50
2022-10-27T05:19:28.459Z,7.30
2022-10-27T05:21:55.033Z,7.43
2022-10-27T05:24:23.870Z,8.50
2022-10-27T05:26:50.328Z,7.72
2022-10-27T05:29:16.912Z,7.65
2022-10-27T05:31:43.400Z,8.40
2022-10-27T05:34:09.839Z,7.07
2022-10-27T05:36:41.625Z,7.53
2022-10-27T05:39:10.265Z,8.27
2022-10-27T05:41:36.952Z,8.05
2022-10-27T05:44:05.154Z,8.45
2022-10-27T05:46:31.620Z,7.22
2022-10-27T05:48:58.120Z,7.78
2022-10-27T05:51:28.918Z,8.10
2022-10-27T05:53:56.386Z,7.78
2022-10-27T05:56:22.956Z,8.65
2022-10-27T05:58:49.744Z,7.70
2022-10-27T06:01:16.388Z,7.97
2022-10-27T06:03:42.992Z,8.30
2022-10-27T06:06:15.266Z,9.38
2022-10-27T06:08:41.972Z,8.88
2022-10-27T06:11:08.826Z,8.38
2022-10-27T06:13:35.324Z,8.43
2022-10-27T06:16:01.908Z,9.38
2022-10-27T06:18:28.447Z,8.23
2022-10-27T06:20:56.721Z,8.35
2022-10-27T06:23:23.298Z,8.20
2022-10-27T06:25:49.806Z,7.28
2022-10-27T06:28:24.323Z,8.15
2022-10-27T06:30:50.829Z,7.05
2022-10-27T06:33:17.367Z,7.18
2022-10-27T06:35:46.571Z,7.43
2022-10-27T06:38:17.134Z,8.15
2022-10-27T06:43:16.111Z,6.30
2022-10-27T06:45:48.561Z,6.30
2022-10-27T06:48:15.507Z,6.63
2022-10-27T06:50:43.766Z,5.80
2022-10-27T06:53:10.572Z,6.57
2022-10-27T06:55:37.172Z,5.80
2022-10-27T06:58:14.465Z,7.20
2022-10-27T07:00:43.582Z,6.57
2022-10-27T07:05:38.047Z,6.10
2022-10-27T07:08:04.905Z,6.68
2022-10-27T07:10:33.223Z,6.40
2022-10-27T07:13:03.941Z,5.78
2022-10-27T07:15:33.106Z,5.75
2022-10-27T07:18:07.566Z,5.90
2022-10-27T07:20:39.076Z,5.90
2022-10-27T07:23:07.129Z,5.95
2022-10-27T07:25:42.976Z,5.88
2022-10-27T07:28:12.563Z,5.85
2022-10-27T07:30:43.768Z,5.95
2022-10-27T07:33:12.822Z,5.65
2022-10-27T07:35:39.338Z,5.47
2022-10-27T07:38:07.864Z,5.28
2022-10-27T07:40:36.695Z,4.97
2022-10-27T07:43:06.752Z,5.13
2022-10-27T07:45:35.511Z,5.43
2022-10-27T07:48:03.759Z,5.78
2022-10-27T07:50:33.229Z,5.65
2022-10-27T07:53:00.997Z,6.50
2022-10-27T07:55:29.445Z,5.72
2022-10-27T07:58:00.135Z,5.95
2022-10-27T08:00:33.108Z,5.22
2022-10-27T08:03:00.849Z,4.97
2022-10-27T08:05:28.748Z,4.60
2022-10-27T08:08:06.680Z,4.82
2022-10-27T08:10:35.460Z,5.05
2022-10-27T08:13:04.008Z,4.78
2022-10-27T08:15:31.107Z,4.97
2022-10-27T08:18:01.780Z,4.47
2022-10-27T08:20:32.156Z,4.38
2022-10-27T08:23:03.851Z,4.50
2022-10-27T08:25:31.119Z,4.95
2022-10-27T08:27:58.723Z,4.72
2022-10-27T08:30:33.828Z,4.38
2022-10-27T08:33:03.803Z,4.03
2022-10-27T08:35:31.885Z,5.47
2022-10-27T08:38:04.566Z,4.05
2022-10-27T08:40:37.722Z,4.30
2022-10-27T08:43:34.444Z,4.35
2022-10-27T08:46:19.978Z,4.55
2022-10-27T08:48:49.730Z,3.92
2022-10-27T08:53:56.018Z,4.47
2022-10-27T08:56:26.798Z,4.53
2022-10-27T08:58:53.280Z,4.20
2022-10-27T09:05:11.342Z,4.10
2022-10-27T09:07:53.464Z,3.72
2022-10-27T09:10:27.069Z,4.30
2022-10-27T09:13:36.189Z,4.30
2022-10-27T09:16:09.484Z,4.25
2022-10-27T09:18:58.271Z,3.95
2022-10-27T09:21:26.630Z,4.30
2022-10-27T09:23:56.487Z,4.20
2022-10-27T09:26:32.974Z,4.28
2022-10-27T09:29:03.359Z,4.22
2022-10-27T09:31:40.467Z,3.55
2022-10-27T09:34:27.977Z,3.90
2022-10-27T09:36:55.303Z,3.13
2022-10-27T09:39:25.976Z,3.42
2022-10-27T09:41:52.476Z,3.20
2022-10-27T09:46:55.027Z,4.28
2022-10-27T09:49:32.250Z,3.75
2022-10-27T09:52:05.945Z,3.78
2022-10-27T09:54:34.504Z,4.00
2022-10-27T09:57:10.753Z,3.90
2022-10-27T09:59:38.805Z,4.10
2022-10-27T10:02:20.863Z,4.07
2022-10-27T10:04:54.494Z,3.88
2022-10-27T10:07:39.317Z,3.60
2022-10-27T10:10:19.528Z,3.45
2022-10-27T10:12:46.259Z,3.63
2022-10-27T10:15:13.034Z,3.83
2022-10-27T10:17:55.085Z,3.70
2022-10-27T10:20:39.414Z,3.35
2022-10-27T10:23:24.331Z,3.53
2022-10-27T10:25:53.369Z,3.63
2022-10-27T10:28:36.780Z,4.30
2022-10-27T10:31:07.239Z,4.30
2022-10-27T10:33:37.367Z,3.72
2022-10-27T10:36:27.737Z,4.40
2022-10-27T10:38:56.984Z,3.80
2022-10-27T10:41:28.421Z,4.07
2022-10-27T10:44:11.281Z,4.53
2022-10-27T10:46:53.393Z,4.03
2022-10-27T10:49:28.240Z,4.43
2022-10-27T10:52:00.653Z,4.67
2022-10-27T10:54:38.504Z,4.50
2022-10-27T10:57:05.820Z,5.07
2022-10-27T10:59:35.243Z,4.78
2022-10-27T11:02:27.455Z,5.10
2022-10-27T11:04:58.253Z,4.93
2022-10-27T11:07:27.912Z,4.10
2022-10-27T11:10:09.898Z,4.32
2022-10-27T11:12:51.036Z,4.75
2022-10-27T11:15:26.458Z,4.45
2022-10-27T11:17:57.953Z,4.43
2022-10-27T11:20:54.690Z,5.18
2022-10-27T11:23:28.149Z,4.88
2022-10-27T11:26:00.524Z,4.82
2022-10-27T11:28:34.164Z,5.85
2022-10-27T11:31:38.147Z,5.97
2022-10-27T11:34:18.513Z,5.70
2022-10-27T11:37:02.279Z,5.90
2022-10-27T11:39:39.450Z,5.50
2022-10-27T11:42:35.943Z,5.80
2022-10-27T11:47:41.763Z,6.28
2022-10-27T11:50:11.605Z,6.72
2022-10-27T11:52:41.015Z,7.20
2022-10-27T12:00:27.957Z,7.22
2022-10-27T12:02:54.754Z,6.95
2022-10-27T12:05:31.326Z,7.35
2022-10-27T12:11:18.862Z,7.22
2022-10-27T12:14:10.262Z,7.25
2022-10-27T12:16:57.188Z,6.95
2022-10-27T12:19:37.217Z,6.85
2022-10-27T12:22:08.591Z,5.88
2022-10-27T12:24:38.267Z,6.90
2022-10-27T12:27:12.932Z,6.72
2022-10-27T12:29:45.791Z,6.60
2022-10-27T12:32:19.762Z,6.35
2022-10-27T12:34:58.659Z,5.72
2022-10-27T12:40:29.573Z,5.78
2022-10-27T12:43:08.320Z,6.47
2022-10-27T12:45:37.864Z,5.80
2022-10-27T12:48:22.375Z,6.80
2022-10-27T12:51:00.389Z,7.40
2022-10-27T12:53:38.181Z,6.28
2022-10-27T12:56:44.676Z,7.20
2022-10-27T12:59:32.343Z,6.38
2022-10-27T13:02:09.674Z,6.53
2022-10-27T13:05:07.225Z,7.13
2022-10-27T13:08:01.472Z,6.45
2022-10-27T13:10:51.735Z,6.25
2022-10-27T13:13:39.193Z,6.35
2022-10-27T13:16:29.415Z,5.72
2022-10-27T13:19:11.106Z,6.22
2022-10-27T13:21:55.957Z,7.43
2022-10-27T13:24:54.785Z,6.15
2022-10-27T13:27:36.468Z,5.80
2022-10-27T13:30:07.110Z,6.13
2022-10-27T13:32:48.882Z,6.82
2022-10-27T13:35:15.296Z,6.38
2022-10-27T13:38:01.239Z,6.63
2022-10-27T13:40:27.697Z,6.82
2022-10-27T13:43:17.335Z,6.28
2022-10-27T13:45:43.739Z,6.10
2022-10-27T13:48:15.642Z,7.03
2022-10-27T13:50:50.621Z,6.43
2022-10-27T13:53:19.918Z,6.88
2022-10-27T13:55:49.492Z,6.55
2022-10-27T13:58:19.191Z,6.22
2022-10-27T14:01:06.873Z,6.50
2022-10-27T14:04:03.423Z,6.18
2022-10-27T14:06:46.638Z,6.25
2022-10-27T14:09:35.431Z,6.15
2022-10-27T14:12:14.520Z,5.68
2022-10-27T14:14:41.381Z,6.20
2022-10-27T14:17:18.391Z,6.05
2022-10-27T14:19:57.484Z,5.10
2022-10-27T14:22:43.725Z,4.93
2022-10-27T14:25:22.587Z,4.78
2022-10-27T14:28:02.867Z,5.07
2022-10-27T14:30:30.646Z,5.20
2022-10-27T14:33:15.137Z,4.88
2022-10-27T14:35:41.810Z,4.95
2022-10-27T14:38:20.119Z,5.05
2022-10-27T14:40:50.281Z,5.47
2022-10-27T14:43:25.415Z,4.68
2022-10-27T14:46:00.742Z,5.50
2022-10-27T14:48:34.631Z,5.38
2022-10-27T14:51:10.922Z,5.07
2022-10-27T14:53:39.906Z,5.80
2022-10-27T14:56:06.800Z,5.45
2022-10-27T14:58:33.408Z,5.22
2022-10-27T15:00:59.969Z,5.13
2022-10-27T15:03:32.579Z,5.28
2022-10-27T15:05:59.932Z,5.82
2022-10-27T15:08:35.106Z,5.18
2022-10-27T15:11:08.331Z,5.38
2022-10-27T15:13:35.258Z,5.45
2022-10-27T15:16:07.817Z,4.78
2022-10-27T15:18:41.165Z,5.05
2022-10-27T15:21:14.233Z,4.90
2022-10-27T15:23:42.766Z,4.93
2022-10-27T15:26:14.102Z,4.10
2022-10-27T15:28:41.591Z,4.53
2022-10-27T15:31:09.783Z,4.30
2022-10-27T15:33:43.639Z,4.45
2022-10-27T15:36:11.571Z,4.20
2022-10-27T15:38:41.601Z,3.90
2022-10-27T15:41:21.140Z,4.22
2022-10-27T15:46:48.231Z,4.03
2022-10-27T15:49:31.355Z,4.30
2022-10-27T15:52:07.956Z,4.15
2022-10-27T15:54:49.509Z,4.38
2022-10-27T15:57:37.347Z,4.43
2022-10-27T16:00:07.216Z,4.32
2022-10-27T16:02:36.380Z,4.72
2022-10-27T16:05:33.933Z,4.57
2022-10-27T16:08:20.295Z,4.35
2022-10-27T16:10:52.468Z,4.20
2022-10-27T16:13:21.614Z,4.22
2022-10-27T16:15:49.467Z,4.55
2022-10-27T16:18:21.935Z,4.47
2022-10-27T16:20:48.440Z,4.85
2022-10-27T16:23:17.294Z,4.28
2022-10-27T16:25:47.695Z,4.43
2022-10-27T16:28:18.599Z,4.43
2022-10-27T16:30:45.311Z,4.65
2022-10-27T16:33:18.303Z,4.38
2022-10-27T16:35:44.979Z,4.70
2022-10-27T16:38:11.842Z,4.95
2022-10-27T16:40:47.908Z,4.95
2022-10-27T16:43:23.421Z,4.57
2022-10-27T16:46:01.760Z,4.70
2022-10-27T16:48:33.000Z,4.70
2022-10-27T16:51:11.537Z,4.22
2022-10-27T16:53:37.982Z,4.50
2022-10-27T16:56:07.022Z,4.13
2022-10-27T16:58:35.685Z,4.60
2022-10-27T17:01:06.544Z,4.57
2022-10-27T17:03:36.640Z,4.80
2022-10-27T17:06:04.126Z,4.97
2022-10-27T17:08:33.194Z,4.60
2022-10-27T17:13:58.677Z,4.00
2022-10-27T17:16:25.140Z,4.80
2022-10-27T17:18:55.536Z,4.50
2022-10-27T17:21:24.475Z,3.95
2022-10-27T17:23:50.994Z,4.10
2022-10-27T17:26:17.557Z,4.15
2022-10-27T17:28:49.056Z,4.40
2022-10-27T17:31:21.060Z,4.35
2022-10-27T17:33:51.113Z,3.78
2022-10-27T17:36:18.217Z,4.13
2022-10-27T17:38:44.684Z,4.13
2022-10-27T17:41:18.165Z,4.03
2022-10-27T17:43:50.540Z,4.25
2022-10-27T17:46:21.134Z,4.13
2022-10-27T17:48:51.919Z,4.20
2022-10-27T17:51:21.938Z,4.28
2022-10-27T17:53:55.712Z,4.57
2022-10-27T17:56:25.213Z,3.60
2022-10-27T18:01:45.972Z,4.70
2022-10-27T18:04:12.840Z,4.10
2022-10-27T18:06:39.898Z,4.93
2022-10-27T18:09:08.789Z,4.35
2022-10-27T18:11:38.809Z,4.40
2022-10-27T18:14:08.306Z,3.97
2022-10-27T18:16:41.296Z,4.15
2022-10-27T18:19:10.398Z,4.00
2022-10-27T18:21:40.871Z,4.18
2022-10-27T18:24:10.656Z,4.00
2022-10-27T18:26:41.983Z,4.20
2022-10-27T18:29:10.771Z,3.50
2022-10-27T18:31:38.684Z,3.70
2022-10-27T18:34:07.879Z,3.80
2022-10-27T18:39:26.313Z,4.20
2022-10-27T18:41:52.987Z,3.50
2022-10-27T18:44:21.891Z,3.67
2022-10-27T18:46:56.102Z,4.05
2022-10-27T18:49:30.491Z,3.83
2022-10-27T18:52:12.598Z,4.20
2022-10-27T18:54:39.124Z,3.53
2022-10-27T18:57:05.584Z,3.75
2022-10-27T18:59:32.163Z,3.70
2022-10-27T19:02:01.050Z,3.92
2022-10-27T19:04:27.612Z,4.15
2022-10-27T19:06:56.284Z,3.53
2022-10-27T19:09:24.748Z,4.22
2022-10-27T19:11:51.215Z,3.55
2022-10-27T19:14:17.754Z,3.75
2022-10-27T19:16:44.418Z,4.30
2022-10-27T19:19:10.925Z,3.63
2022-10-27T19:21:39.185Z,4.25
2022-10-27T19:24:06.013Z,4.18
2022-10-27T19:26:33.963Z,4.40
2022-10-27T19:29:00.535Z,4.57
2022-10-27T19:31:30.253Z,4.28
2022-10-27T19:33:57.981Z,4.32
2022-10-27T19:36:30.147Z,3.50
2022-10-27T19:38:57.767Z,4.22
2022-10-27T19:41:28.580Z,4.28
2022-10-27T19:43:59.123Z,4.30
2022-10-27T19:46:26.888Z,3.85
2022-10-27T19:48:55.544Z,3.90
2022-10-27T19:51:25.251Z,4.65
2022-10-27T19:53:53.281Z,4.00
2022-10-27T19:56:19.783Z,4.28
2022-10-27T19:58:54.560Z,4.65
2022-10-27T20:01:24.947Z,4.60
2022-10-27T20:03:51.942Z,4.03
2022-10-27T20:06:26.154Z,4.60
2022-10-27T20:08:56.588Z,4.60
2022-10-27T20:11:26.179Z,4.70
2022-10-27T20:13:55.612Z,4.55
2022-10-27T20:16:26.222Z,4.57
2022-10-27T20:18:53.264Z,4.50
2022-10-27T20:21:20.485Z,4.35
2022-10-27T20:23:47.489Z,4.18
2022-10-27T20:26:33.434Z,4.50
2022-10-27T20:29:00.047Z,5.00
2022-10-27T20:31:29.230Z,4.22
2022-10-27T20:33:57.971Z,4.35
2022-10-27T20:36:25.451Z,4.40
2022-10-27T20:38:53.012Z,4.25
2022-10-27T20:41:21.473Z,4.35
2022-10-27T20:43:49.705Z,4.13
2022-10-27T20:46:16.409Z,3.88
2022-10-27T20:48:43.047Z,4.60
2022-10-27T20:51:15.292Z,4.95
2022-10-27T20:53:42.288Z,4.72
2022-10-27T20:56:15.463Z,4.38
2022-10-27T20:58:43.763Z,4.40
2022-10-27T21:01:30.822Z,5.00
2022-10-27T21:04:06.477Z,3.92
2022-10-27T21:06:38.743Z,4.68
2022-10-27T21:09:08.873Z,4.93
2022-10-27T21:11:35.418Z,4.35
2022-10-27T21:14:03.294Z,4.45
2022-10-27T21:16:32.495Z,4.20
2022-10-27T21:19:01.164Z,4.57
2022-10-27T21:21:30.951Z,5.35
2022-10-27T21:24:03.537Z,4.70
2022-10-27T21:26:30.368Z,4.78
2022-10-27T21:28:58.122Z,4.70
2022-10-27T21:31:29.081Z,4.63
2022-10-27T21:34:02.796Z,3.80
2022-10-27T21:36:35.572Z,3.95
2022-10-27T21:39:02.227Z,4.68
2022-10-27T21:41:28.906Z,4.45
2022-10-27T21:43:56.522Z,4.15
2022-10-27T21:46:26.030Z,4.78
2022-10-27T21:49:00.285Z,5.03
2022-10-27T21:51:28.140Z,4.60
2022-10-27T21:54:01.052Z,4.25
2022-10-27T21:56:34.150Z,4.70
2022-10-27T21:59:01.174Z,4.22
2022-10-27T22:01:28.733Z,4.18
2022-10-27T22:03:57.800Z,4.53
2022-10-27T22:06:27.887Z,4.43
2022-10-27T22:08:54.720Z,4.07
2022-10-27T22:11:36.544Z,5.05
2022-10-27T22:14:05.383Z,4.40
2022-10-27T22:16:34.184Z,4.25
2022-10-27T22:19:04.057Z,4.30
2022-10-27T22:21:33.137Z,4.70
2022-10-27T22:24:00.408Z,4.63
2022-10-27T22:26:27.266Z,4.20
2022-10-27T22:28:54.467Z,4.10
2022-10-27T22:31:27.452Z,4.95
2022-10-27T22:33:56.326Z,4.45
2022-10-27T22:36:25.355Z,4.50
2022-10-27T22:38:53.803Z,4.88
2022-10-27T22:41:23.389Z,3.85
2022-10-27T22:43:50.219Z,5.60
2022-10-27T22:46:22.645Z,5.05
2022-10-27T22:48:50.164Z,4.60
2022-10-27T22:51:19.859Z,5.53
2022-10-27T22:53:47.133Z,4.30
2022-10-27T22:56:19.213Z,4.35
2022-10-27T22:58:50.440Z,4.75
2022-10-27T23:01:41.702Z,4.38
2022-10-27T23:04:13.005Z,4.95
2022-10-27T23:06:39.743Z,3.63
2022-10-27T23:09:22.421Z,4.70
2022-10-27T23:11:49.323Z,4.22
2022-10-27T23:14:16.871Z,4.25
2022-10-27T23:16:48.470Z,4.38
2022-10-27T23:19:15.329Z,4.20
2022-10-27T23:21:41.836Z,4.88
2022-10-27T23:24:10.380Z,4.20
2022-10-27T23:26:38.891Z,4.82
2022-10-27T23:29:08.597Z,4.80
2022-10-27T23:31:38.652Z,4.20
2022-10-27T23:34:06.912Z,4.47
2022-10-27T23:36:37.238Z,4.32
2022-10-27T23:39:04.724Z,4.40
2022-10-27T23:41:31.841Z,4.40
2022-10-27T23:43:59.902Z,4.10
2022-10-27T23:46:27.859Z,4.40
2022-10-27T23:48:54.625Z,5.00
2022-10-27T23:51:23.561Z,4.78
2022-10-27T23:53:50.914Z,4.75
2022-10-27T23:56:18.014Z,5.13
2022-10-27T23:58:45.067Z,5.13
